Time;durP1;ratioP1;P1;durP2;ratioP2;P2;SDS_P1;SDS_P2;PMS_P1;PMS_P2;Temp;Humidity;BMP_temperature;BMP_pressure;BME280_temperature;BME280_humidity;BME280_pressure;Samples;Min_cycle;Max_cycle;Signal;HPM_P1;HPM_P2
2022/01/28 00:04:45;;;;;;;10.05;1.77;;;6.80;82.60;;;;;;4967248;28;20062;-70
2022/01/28 00:07:11;;;;;;;7.72;1.58;;;6.80;82.80;;;;;;4967508;28;20066;-71
2022/01/28 00:09:36;;;;;;;6.43;1.20;;;6.80;83.10;;;;;;4973363;28;20844;-70
2022/01/28 00:12:03;;;;;;;9.82;1.63;;;6.70;82.90;;;;;;4971379;28;20068;-70
2022/01/28 00:14:54;;;;;;;10.82;1.42;;;6.80;82.80;;;;;;4977974;28;20572;-71
2022/01/28 00:20:51;;;;;;;14.13;1.77;;;6.60;83.10;;;;;;4966648;28;20038;-71
2022/01/28 00:39:01;;;;;;;17.20;1.77;;;6.70;83.40;;;;;;4969794;28;20057;-70
2022/01/28 00:41:26;;;;;;;12.98;2.30;;;6.70;82.60;;;;;;4971100;28;20038;-70
2022/01/28 00:43:52;;;;;;;6.90;1.33;;;6.60;83.50;;;;;;4969749;28;20031;-69
2022/01/28 00:46:18;;;;;;;10.38;1.60;;;6.60;83.60;;;;;;4965405;28;20683;-69
2022/01/28 00:48:43;;;;;;;11.40;1.85;;;6.50;84.10;;;;;;4964166;28;20014;-73
2022/01/28 00:51:09;;;;;;;10.98;1.85;;;6.50;84.10;;;;;;4960813;28;20034;-71
2022/01/28 00:53:35;;;;;;;7.78;2.40;;;6.40;83.80;;;;;;4970688;28;20038;-71
2022/01/28 00:56:00;;;;;;;8.18;1.63;;;6.40;84.80;;;;;;4972355;28;20856;-71
2022/01/28 00:58:26;;;;;;;12.18;1.63;;;6.30;84.50;;;;;;4971026;28;20066;-70
2022/01/28 01:00:52;;;;;;;12.23;1.83;;;6.30;84.50;;;;;;4971420;28;20033;-70
2022/01/28 01:03:17;;;;;;;7.97;1.25;;;6.30;83.90;;;;;;4973727;28;20082;-69
2022/01/28 01:05:43;;;;;;;19.58;2.13;;;6.30;84.60;;;;;;4973808;28;20116;-72
2022/01/28 01:08:09;;;;;;;12.75;1.90;;;6.20;84.70;;;;;;4973882;28;20037;-72
2022/01/28 01:10:36;;;;;;;20.40;2.42;;;6.20;85.20;;;;;;4973247;28;20038;-71
2022/01/28 01:13:02;;;;;;;8.82;1.40;;;6.20;84.80;;;;;;4965956;28;20043;-71
2022/01/28 01:15:34;;;;;;;14.95;1.73;;;6.20;84.90;;;;;;4964570;28;20419;-72
2022/01/28 01:18:08;;;;;;;7.45;1.25;;;6.20;84.80;;;;;;4971754;28;20031;-71
2022/01/28 01:21:00;;;;;;;11.98;1.85;;;6.10;85.40;;;;;;4965780;28;20061;-73
2022/01/28 01:23:26;;;;;;;17.17;2.70;;;6.10;85.40;;;;;;4975625;28;20042;-72
2022/01/28 01:28:21;;;;;;;10.02;1.58;;;6.10;86.00;;;;;;4975182;28;20882;-69
2022/01/28 01:30:47;;;;;;;14.77;1.65;;;6.20;86.30;;;;;;4972654;28;20057;-71
2022/01/28 01:33:16;;;;;;;14.60;2.35;;;6.20;85.10;;;;;;4976899;28;20047;-71
2022/01/28 01:35:42;;;;;;;16.20;1.60;;;6.20;85.20;;;;;;4970391;28;20801;-70
2022/01/28 01:38:09;;;;;;;9.02;1.48;;;6.10;85.70;;;;;;4978739;28;20038;-75
2022/01/28 01:40:50;;;;;;;11.60;1.63;;;6.10;86.00;;;;;;4963997;28;20030;-72
2022/01/28 01:43:32;;;;;;;10.68;1.60;;;6.10;85.90;;;;;;4974459;28;20038;-71
2022/01/28 01:54:04;;;;;;;9.63;1.25;;;5.90;87.70;;;;;;4974955;28;20648;-71
2022/01/28 01:56:35;;;;;;;13.77;1.77;;;6.00;87.80;;;;;;4971916;28;20037;-74
2022/01/28 01:59:01;;;;;;;11.40;1.70;;;6.00;87.80;;;;;;4972108;28;20255;-73
2022/01/28 02:01:27;;;;;;;16.25;1.98;;;6.10;87.50;;;;;;4979672;28;20044;-72
2022/01/28 02:03:54;;;;;;;15.27;2.72;;;6.10;87.30;;;;;;4976670;28;20026;-71
2022/01/28 02:06:22;;;;;;;14.98;2.42;;;6.20;87.20;;;;;;4967231;28;20045;-71
2022/01/28 02:08:48;;;;;;;10.80;1.90;;;6.20;86.20;;;;;;4977596;28;20146;-71
2022/01/28 02:11:14;;;;;;;14.48;2.38;;;6.20;86.40;;;;;;4975072;28;20045;-71
2022/01/28 02:13:51;;;;;;;13.15;1.88;;;6.10;86.80;;;;;;4970817;28;20030;-72
2022/01/28 02:16:17;;;;;;;10.55;1.38;;;6.20;87.30;;;;;;4972423;28;20065;-68
2022/01/28 02:18:43;;;;;;;12.40;1.92;;;6.30;86.90;;;;;;4977065;28;20046;-69
2022/01/28 02:21:11;;;;;;;9.15;1.52;;;6.30;85.90;;;;;;4972075;28;20031;-72
2022/01/28 02:23:39;;;;;;;9.27;1.73;;;6.30;85.40;;;;;;4975348;28;20132;-72
2022/01/28 02:26:06;;;;;;;9.13;2.10;;;6.30;85.20;;;;;;4968960;28;20133;-70
2022/01/28 02:28:37;;;;;;;15.45;2.17;;;6.40;85.40;;;;;;4967972;28;20357;-70
2022/01/28 02:31:04;;;;;;;10.40;1.40;;;6.40;84.50;;;;;;4970566;28;20445;-70
2022/01/28 02:33:30;;;;;;;12.15;1.98;;;6.50;84.60;;;;;;4966861;28;20044;-70
2022/01/28 02:36:03;;;;;;;11.63;1.70;;;6.50;84.40;;;;;;4979305;28;20084;-70
2022/01/28 02:38:28;;;;;;;11.88;1.80;;;6.50;83.80;;;;;;4971246;28;20038;-69
2022/01/28 02:40:57;;;;;;;10.85;1.95;;;6.40;83.30;;;;;;4973341;28;20037;-68
2022/01/28 02:43:38;;;;;;;15.50;2.30;;;6.50;84.00;;;;;;4972769;28;20034;-69
2022/01/28 02:46:12;;;;;;;13.13;1.58;;;6.30;84.40;;;;;;4974221;28;20105;-69
2022/01/28 02:48:42;;;;;;;9.18;2.55;;;6.30;85.20;;;;;;4972658;28;20058;-69
2022/01/28 02:51:14;;;;;;;11.23;2.28;;;6.30;84.60;;;;;;4967115;28;20046;-70
2022/01/28 02:53:52;;;;;;;9.77;1.58;;;6.30;84.50;;;;;;4968187;28;20047;-69
2022/01/28 02:56:31;;;;;;;13.02;1.80;;;6.30;84.50;;;;;;4962794;28;20893;-69
2022/01/28 02:58:58;;;;;;;9.93;1.58;;;6.40;84.40;;;;;;4967568;28;20146;-70
2022/01/28 03:01:24;;;;;;;17.83;2.67;;;6.40;83.90;;;;;;4977847;28;20406;-70
2022/01/28 03:03:51;;;;;;;13.13;2.38;;;6.40;84.30;;;;;;4972088;28;20051;-70
2022/01/28 03:06:19;;;;;;;10.02;2.58;;;6.50;83.70;;;;;;4976541;28;20077;-70
2022/01/28 03:08:59;;;;;;;17.13;2.30;;;6.60;83.60;;;;;;4975646;28;20034;-70
2022/01/28 07:12:10;;;;;;;10.15;2.83;;;6.40;79.10;;;;;;4956712;28;20117;-70
2022/01/28 07:14:36;;;;;;;11.38;2.15;;;6.40;78.40;;;;;;4957909;28;20032;-69
2022/01/28 07:17:02;;;;;;;15.38;2.58;;;6.40;79.20;;;;;;4961193;28;20489;-71
2022/01/28 07:19:28;;;;;;;16.65;2.15;;;6.40;78.80;;;;;;4961571;28;20485;-70
2022/01/28 07:21:53;;;;;;;20.80;3.08;;;6.50;78.50;;;;;;4963567;28;20043;-70
2022/01/28 07:24:19;;;;;;;11.48;1.92;;;6.40;78.20;;;;;;4962615;28;20034;-69
2022/01/28 07:26:46;;;;;;;14.48;2.20;;;6.40;78.20;;;;;;4958872;28;20828;-70
2022/01/28 07:29:13;;;;;;;16.85;2.30;;;6.40;78.10;;;;;;4963978;28;20133;-69
2022/01/28 07:31:39;;;;;;;19.13;2.15;;;6.40;77.90;;;;;;4969703;28;20045;-70
2022/01/28 07:34:06;;;;;;;17.13;2.30;;;6.40;77.60;;;;;;4968196;28;20046;-70
2022/01/28 07:36:34;;;;;;;14.27;2.78;;;6.40;78.30;;;;;;4967121;28;20070;-71
2022/01/28 07:39:00;;;;;;;12.77;2.28;;;6.30;77.20;;;;;;4945756;28;20031;-70
2022/01/28 07:41:27;;;;;;;16.58;2.28;;;6.30;78.40;;;;;;4956521;28;20066;-70
2022/01/28 07:43:53;;;;;;;12.95;2.38;;;6.30;77.80;;;;;;4967350;28;20026;-70
2022/01/28 07:46:19;;;;;;;19.55;2.83;;;6.30;78.10;;;;;;4968380;28;20540;-71
2022/01/28 07:48:45;;;;;;;16.25;2.55;;;6.40;77.50;;;;;;4962821;28;20103;-71
2022/01/28 07:51:10;;;;;;;8.98;1.85;;;6.40;77.40;;;;;;4969266;28;20584;-71
2022/01/28 07:53:36;;;;;;;20.90;3.05;;;6.40;77.30;;;;;;4961095;28;20541;-71
2022/01/28 07:56:02;;;;;;;15.18;2.25;;;6.40;77.30;;;;;;4963115;28;20038;-70
2022/01/28 07:58:27;;;;;;;13.20;2.40;;;6.40;78.00;;;;;;4962913;28;20832;-70
2022/01/28 08:00:53;;;;;;;8.25;2.13;;;6.40;77.40;;;;;;4960199;28;20038;-70
2022/01/28 08:03:19;;;;;;;16.48;2.50;;;6.30;77.10;;;;;;4970184;28;20035;-70
2022/01/28 08:05:45;;;;;;;20.67;3.70;;;6.30;77.30;;;;;;4964898;28;20030;-70
2022/01/28 08:08:12;;;;;;;9.73;2.38;;;6.40;77.50;;;;;;4965092;28;20057;-70
2022/01/28 08:10:38;;;;;;;17.98;2.42;;;6.40;77.50;;;;;;4968661;28;20042;-70
2022/01/28 08:13:05;;;;;;;11.75;2.33;;;6.40;77.00;;;;;;4967061;28;20049;-70
2022/01/28 08:15:32;;;;;;;10.32;2.30;;;6.40;76.90;;;;;;4967000;28;20481;-70
2022/01/28 08:17:57;;;;;;;20.67;2.40;;;6.30;76.50;;;;;;4962619;28;20496;-70
2022/01/28 08:20:23;;;;;;;15.57;2.40;;;6.30;76.40;;;;;;4964787;28;20054;-70
2022/01/28 08:22:52;;;;;;;19.25;2.65;;;6.30;77.30;;;;;;4962842;28;20502;-70
2022/01/28 08:25:22;;;;;;;11.98;2.65;;;6.30;77.60;;;;;;4961841;28;20034;-69
2022/01/28 08:27:49;;;;;;;13.30;2.42;;;6.50;77.90;;;;;;4960203;28;20081;-70
2022/01/28 08:30:17;;;;;;;11.65;2.08;;;6.60;76.50;;;;;;4965453;28;20249;-70
2022/01/28 08:32:44;;;;;;;15.20;2.30;;;6.70;76.00;;;;;;4963180;28;20047;-70
2022/01/28 08:35:10;;;;;;;12.85;2.60;;;6.90;75.20;;;;;;4967427;28;20034;-70
2022/01/28 08:37:36;;;;;;;16.60;2.45;;;7.00;74.40;;;;;;4962417;28;20034;-71
2022/01/28 08:40:04;;;;;;;12.80;2.33;;;7.10;74.00;;;;;;4969648;28;20048;-70
2022/01/28 08:42:30;;;;;;;18.08;2.67;;;7.00;72.50;;;;;;4961499;28;20038;-70
2022/01/28 08:44:56;;;;;;;17.15;2.65;;;7.00;73.50;;;;;;4965419;28;20027;-70
2022/01/28 08:47:21;;;;;;;14.77;2.72;;;7.10;73.30;;;;;;4957295;28;20058;-70
2022/01/28 08:49:47;;;;;;;18.00;3.42;;;7.20;72.40;;;;;;4963144;28;20412;-70
2022/01/28 08:52:13;;;;;;;18.92;2.80;;;7.20;73.60;;;;;;4943105;28;20073;-71
2022/01/28 08:54:40;;;;;;;18.27;2.45;;;7.20;72.30;;;;;;4960187;28;20716;-71
2022/01/28 08:57:06;;;;;;;12.98;2.58;;;7.40;73.00;;;;;;4969565;28;20039;-70
2022/01/28 08:59:32;;;;;;;18.55;2.75;;;7.50;71.90;;;;;;4959768;28;20402;-71
2022/01/28 09:01:58;;;;;;;20.23;3.63;;;7.60;72.00;;;;;;4971702;28;20401;-71
2022/01/28 09:04:24;;;;;;;15.55;2.83;;;7.70;71.00;;;;;;4961679;28;20548;-71
2022/01/28 09:06:49;;;;;;;15.65;2.33;;;7.80;70.40;;;;;;4954783;28;20046;-70
2022/01/28 09:09:18;;;;;;;12.63;2.30;;;7.90;70.40;;;;;;4963544;28;20491;-70
2022/01/28 09:12:07;;;;;;;15.30;2.58;;;7.90;68.80;;;;;;4957991;28;20046;-70
2022/01/28 09:14:30;;;;;;;14.65;2.80;;;7.80;69.90;;;;;;4977612;28;20114;-73
2022/01/28 09:16:56;;;;;;;14.50;2.55;;;7.80;71.10;;;;;;4955315;28;20030;-70
2022/01/28 09:19:22;;;;;;;13.60;3.15;;;8.00;70.70;;;;;;4961173;28;20078;-69
2022/01/28 09:21:48;;;;;;;12.63;2.83;;;8.10;70.30;;;;;;4964177;28;20135;-70
2022/01/28 09:24:14;;;;;;;16.08;2.55;;;8.30;69.80;;;;;;4955819;28;20053;-70
2022/01/28 09:26:40;;;;;;;20.30;3.15;;;8.50;69.20;;;;;;4957301;28;20698;-70
2022/01/28 09:29:06;;;;;;;12.32;2.90;;;8.90;67.30;;;;;;4970047;28;20711;-70
2022/01/28 09:31:31;;;;;;;13.73;1.85;;;9.60;65.00;;;;;;4959777;28;20115;-70
2022/01/28 09:33:57;;;;;;;18.33;3.88;;;10.00;63.00;;;;;;4957835;28;20909;-70
2022/01/28 09:36:23;;;;;;;17.27;2.63;;;10.10;61.60;;;;;;4962569;28;20648;-70
2022/01/28 09:38:49;;;;;;;20.80;2.70;;;10.20;61.80;;;;;;4962221;28;20114;-70
2022/01/28 09:41:15;;;;;;;15.20;2.47;;;10.40;60.40;;;;;;4952595;28;20039;-70
2022/01/28 09:43:44;;;;;;;24.60;4.47;;;10.50;59.60;;;;;;4968730;28;20931;-69
2022/01/28 09:46:10;;;;;;;15.98;3.03;;;10.90;59.30;;;;;;4963865;28;20035;-69
2022/01/28 09:48:37;;;;;;;16.80;2.50;;;11.60;57.60;;;;;;4965702;28;20030;-68
2022/01/28 09:51:03;;;;;;;24.60;3.03;;;11.90;55.30;;;;;;4953680;28;20082;-74
2022/01/28 09:53:29;;;;;;;20.58;3.08;;;11.50;55.30;;;;;;4958622;28;20101;-73
2022/01/28 09:55:56;;;;;;;19.55;3.53;;;11.00;57.20;;;;;;4958178;28;20483;-74
2022/01/28 09:58:22;;;;;;;16.27;2.40;;;10.70;58.60;;;;;;4965878;28;20034;-74
2022/01/28 10:00:48;;;;;;;16.05;2.92;;;10.70;58.60;;;;;;4952274;28;20558;-73
2022/01/28 10:03:16;;;;;;;17.90;2.63;;;10.60;58.80;;;;;;4957742;28;20027;-74
2022/01/28 10:05:44;;;;;;;18.15;2.65;;;10.40;59.90;;;;;;4971588;28;20042;-75
2022/01/28 10:08:24;;;;;;;14.23;3.03;;;10.10;59.70;;;;;;4961878;28;20786;-73
2022/01/28 10:11:10;;;;;;;12.68;2.38;;;9.80;60.60;;;;;;4957313;28;20487;-73
2022/01/28 10:13:44;;;;;;;13.43;1.95;;;9.70;61.60;;;;;;4963282;28;20039;-73
2022/01/28 10:16:11;;;;;;;20.40;2.65;;;9.70;61.60;;;;;;4965917;28;20179;-73
2022/01/28 10:19:02;;;;;;;22.05;2.90;;;9.70;61.10;;;;;;4960113;28;20038;-74
2022/01/28 10:21:39;;;;;;;12.68;2.53;;;9.70;61.90;;;;;;4966506;28;20129;-73
2022/01/28 10:24:05;;;;;;;20.85;3.90;;;9.60;62.10;;;;;;4964547;28;20124;-73
2022/01/28 10:26:34;;;;;;;15.45;4.32;;;9.30;61.70;;;;;;4971136;28;20559;-73
2022/01/28 10:29:01;;;;;;;19.02;3.35;;;9.20;63.50;;;;;;4959211;28;20063;-74
2022/01/28 10:31:35;;;;;;;24.40;3.42;;;9.80;63.20;;;;;;4960552;28;20693;-69
2022/01/28 10:34:27;;;;;;;13.55;2.45;;;10.80;60.20;;;;;;4957698;28;20042;-73
2022/01/28 10:37:20;;;;;;;11.20;2.25;;;11.60;57.20;;;;;;4954467;28;20050;-73
2022/01/28 10:40:00;;;;;;;14.02;2.38;;;12.40;54.20;;;;;;4963537;28;20031;-73
2022/01/28 10:42:28;;;;;;;12.45;2.83;;;12.90;54.10;;;;;;4978515;28;20066;-72
2022/01/28 10:44:57;;;;;;;13.52;2.45;;;13.00;51.80;;;;;;4962639;28;20023;-72
2022/01/28 10:47:41;;;;;;;17.65;3.10;;;13.30;53.00;;;;;;4961388;28;20035;-71
2022/01/28 10:50:26;;;;;;;11.85;2.33;;;13.70;51.80;;;;;;4962693;28;20038;-75
2022/01/28 10:53:10;;;;;;;10.18;2.30;;;13.60;50.20;;;;;;4965240;28;20038;-73
2022/01/28 10:55:38;;;;;;;14.20;3.08;;;13.40;52.30;;;;;;4961946;28;20565;-74
2022/01/28 10:58:11;;;;;;;17.73;6.78;;;13.10;52.90;;;;;;4961143;28;20279;-76
2022/01/28 11:00:46;;;;;;;20.52;4.15;;;12.80;54.10;;;;;;4954252;28;20035;-76
2022/01/28 11:03:13;;;;;;;10.43;2.63;;;12.30;53.00;;;;;;4958281;28;20418;-73
2022/01/28 11:05:40;;;;;;;12.77;2.60;;;11.90;55.00;;;;;;4958685;28;20069;-74
2022/01/28 11:08:08;;;;;;;12.68;2.80;;;11.60;56.10;;;;;;4961389;28;20031;-76
2022/01/28 11:10:35;;;;;;;14.65;2.63;;;11.50;57.10;;;;;;4959628;28;20045;-74
2022/01/28 11:13:01;;;;;;;12.20;3.10;;;11.50;58.10;;;;;;4951664;28;20035;-73
2022/01/28 11:15:28;;;;;;;13.57;2.33;;;11.50;58.50;;;;;;4960565;28;20041;-73
2022/01/28 11:17:55;;;;;;;12.10;3.00;;;11.50;57.70;;;;;;4962627;28;20137;-73
2022/01/28 11:20:38;;;;;;;10.75;2.50;;;11.60;57.20;;;;;;4947311;28;20113;-73
2022/01/28 11:23:59;;;;;;;12.68;2.80;;;11.50;57.30;;;;;;4959667;28;20130;-73
2022/01/28 11:26:28;;;;;;;20.50;2.60;;;11.50;57.40;;;;;;4880461;29;20697;-73
2022/01/28 11:29:02;;;;;;;14.65;2.55;;;11.40;58.10;;;;;;4952910;28;20126;-73
2022/01/28 11:32:09;;;;;;;11.48;2.10;;;11.30;56.90;;;;;;4961365;28;20042;-72
2022/01/28 11:34:36;;;;;;;;;;;11.20;56.80;;;;;;4958455;28;20058;-73
2022/01/28 11:37:14;;;;;;;8.98;2.20;;;11.00;58.20;;;;;;4963755;28;20429;-73
2022/01/28 11:39:45;;;;;;;22.45;3.00;;;10.90;59.50;;;;;;4960199;28;20072;-73
2022/01/28 11:42:13;;;;;;;17.80;2.53;;;10.80;59.10;;;;;;4962248;28;20054;-73
2022/01/28 11:44:51;;;;;;;11.15;2.20;;;10.80;59.20;;;;;;4959322;28;20055;-75
2022/01/28 11:47:21;;;;;;;16.50;2.22;;;10.70;58.30;;;;;;4957921;28;20034;-75
2022/01/28 11:50:09;;;;;;;17.45;2.47;;;10.70;59.60;;;;;;4961090;28;20117;-76
2022/01/28 11:52:46;;;;;;;10.90;2.25;;;10.80;59.30;;;;;;4958217;28;20649;-74
2022/01/28 11:55:15;;;;;;;13.95;2.22;;;10.70;59.00;;;;;;4959788;28;20034;-74
2022/01/28 11:57:55;;;;;;;11.82;2.63;;;10.70;58.30;;;;;;4954381;28;20042;-74
2022/01/28 12:00:42;;;;;;;13.73;2.55;;;10.50;59.60;;;;;;4957250;28;20050;-73
2022/01/28 12:03:34;;;;;;;12.48;2.42;;;10.40;60.10;;;;;;4964648;28;20042;-71
2022/01/28 12:06:08;;;;;;;14.60;2.55;;;10.40;59.30;;;;;;4952415;28;20769;-73
2022/01/28 12:08:34;;;;;;;10.57;2.10;;;10.30;60.10;;;;;;4955745;28;20035;-72
2022/01/28 12:11:03;;;;;;;18.65;2.90;;;10.20;60.90;;;;;;4954376;28;20092;-72
2022/01/28 12:13:51;;;;;;;15.63;2.90;;;10.20;61.90;;;;;;4966649;28;20061;-73
2022/01/28 12:16:30;;;;;;;17.58;3.80;;;10.10;59.50;;;;;;4966902;28;20047;-73
2022/01/28 12:18:57;;;;;;;16.10;3.22;;;9.90;61.40;;;;;;4961640;28;20039;-73
2022/01/28 12:21:27;;;;;;;13.43;3.08;;;9.70;60.10;;;;;;4960542;28;20048;-73
2022/01/28 12:24:14;;;;;;;13.30;2.63;;;9.50;61.70;;;;;;4960108;28;20038;-74
2022/01/28 12:27:03;;;;;;;8.75;1.90;;;9.50;62.30;;;;;;4955740;28;20043;-66
2022/01/28 12:29:41;;;;;;;22.80;3.42;;;9.50;63.50;;;;;;4960587;28;20069;-71
2022/01/28 12:32:07;;;;;;;11.15;2.20;;;9.50;66.90;;;;;;4955138;28;20035;-70
2022/01/28 12:34:33;;;;;;;16.50;2.70;;;9.80;63.80;;;;;;4961136;28;20035;-71
2022/01/28 12:37:02;;;;;;;15.10;2.72;;;10.00;64.30;;;;;;4964249;28;20038;-72
2022/01/28 12:42:06;;;;;;;12.00;2.40;;;10.50;62.80;;;;;;4958840;28;20038;-72
2022/01/28 12:44:33;;;;;;;11.02;1.95;;;10.80;60.90;;;;;;4961524;28;20492;-71
2022/01/28 12:47:04;;;;;;;9.55;1.75;;;11.10;61.30;;;;;;4961650;28;20450;-69
2022/01/28 12:49:34;;;;;;;9.65;1.85;;;11.30;58.40;;;;;;4954137;28;20491;-78
2022/01/28 12:52:02;;;;;;;13.63;2.05;;;11.20;58.70;;;;;;4955727;28;20035;-72
2022/01/28 12:54:30;;;;;;;12.43;2.58;;;11.10;57.80;;;;;;4958412;28;20229;-72
2022/01/28 12:56:56;;;;;;;13.57;2.20;;;10.90;58.00;;;;;;4958900;28;20043;-72
2022/01/28 12:59:22;;;;;;;11.75;2.20;;;10.80;58.20;;;;;;4962246;28;20045;-72
2022/01/28 13:01:55;;;;;;;11.82;1.48;;;10.70;58.60;;;;;;4969588;28;20094;-72
2022/01/28 13:04:24;;;;;;;13.45;2.50;;;10.50;58.80;;;;;;4965828;28;20037;-74
2022/01/28 13:09:18;;;;;;;10.88;2.03;;;10.10;60.40;;;;;;4955682;28;20033;-70
2022/01/28 13:11:58;;;;;;;10.40;1.77;;;10.00;60.40;;;;;;4960933;28;20038;-71
2022/01/28 13:14:26;;;;;;;9.82;2.63;;;9.80;60.80;;;;;;4955882;28;20039;-74
2022/01/28 13:16:53;;;;;;;5.72;1.40;;;9.60;61.60;;;;;;4950710;28;20034;-65
2022/01/28 13:19:19;;;;;;;12.88;1.95;;;9.50;62.80;;;;;;4949823;28;20037;-74
2022/01/28 13:21:47;;;;;;;11.02;1.83;;;9.40;62.30;;;;;;4948379;28;20038;-67
2022/01/28 13:24:19;;;;;;;7.38;2.10;;;9.20;62.80;;;;;;4958629;28;20038;-69
2022/01/28 13:27:07;;;;;;;7.13;1.35;;;9.10;63.70;;;;;;4959011;28;20042;-70
2022/01/28 13:29:37;;;;;;;11.07;2.10;;;9.00;64.20;;;;;;4955377;28;20039;-70
2022/01/28 13:32:08;;;;;;;9.98;2.08;;;9.00;64.20;;;;;;4953004;28;20053;-70
2022/01/28 13:34:54;;;;;;;15.98;2.38;;;9.00;64.50;;;;;;4954557;28;20039;-69
2022/01/28 13:37:33;;;;;;;10.27;1.70;;;9.00;64.60;;;;;;4954655;28;20541;-68
2022/01/28 13:40:00;;;;;;;11.18;1.50;;;8.90;64.40;;;;;;4934105;28;20034;-67
2022/01/28 13:42:26;;;;;;;10.82;1.83;;;8.90;64.40;;;;;;4962780;28;20031;-68
2022/01/28 13:44:52;;;;;;;8.38;1.83;;;8.90;65.00;;;;;;4962407;28;20050;-68
2022/01/28 13:47:18;;;;;;;8.68;1.73;;;8.80;65.40;;;;;;4958060;28;20046;-68
2022/01/28 13:49:44;;;;;;;7.07;1.63;;;8.80;64.70;;;;;;4950991;28;20046;-68
2022/01/28 13:52:21;;;;;;;13.55;1.90;;;8.80;64.50;;;;;;4951123;28;20550;-68
2022/01/28 13:54:47;;;;;;;11.88;1.92;;;8.80;65.50;;;;;;4959061;28;20070;-68
2022/01/28 13:57:13;;;;;;;7.03;1.50;;;8.80;65.40;;;;;;4958504;28;20053;-69
2022/01/28 13:59:42;;;;;;;10.93;1.75;;;8.70;65.30;;;;;;4956748;28;20035;-68
2022/01/28 14:02:16;;;;;;;8.68;1.77;;;8.70;64.70;;;;;;4956655;28;20199;-69
2022/01/28 14:04:45;;;;;;;9.73;1.92;;;8.70;65.50;;;;;;4954215;28;20027;-69
2022/01/28 14:07:22;;;;;;;14.23;2.30;;;8.60;65.30;;;;;;4953616;28;20027;-66
2022/01/28 14:09:55;;;;;;;7.90;1.38;;;8.50;65.30;;;;;;4956960;28;20501;-69
2022/01/28 14:12:48;;;;;;;6.07;1.38;;;8.40;65.50;;;;;;4953906;28;20779;-68
2022/01/28 14:15:28;;;;;;;10.90;2.30;;;8.40;66.10;;;;;;4950970;28;20518;-69
2022/01/28 14:17:55;;;;;;;8.32;1.50;;;8.40;66.10;;;;;;4952710;28;20039;-68
2022/01/28 14:20:21;;;;;;;7.15;1.30;;;8.30;66.10;;;;;;4957877;28;20050;-69
2022/01/28 14:22:47;;;;;;;9.63;1.48;;;8.30;66.00;;;;;;4960084;28;20019;-69
2022/01/28 14:25:13;;;;;;;12.20;1.90;;;8.30;66.60;;;;;;4963223;28;20035;-68
2022/01/28 14:30:22;;;;;;;7.70;1.55;;;8.10;66.40;;;;;;4954665;28;20031;-68
2022/01/28 14:32:48;;;;;;;9.07;1.63;;;8.00;67.00;;;;;;4949096;28;20102;-69
2022/01/28 14:35:14;;;;;;;7.35;1.40;;;8.00;67.10;;;;;;4950632;28;20398;-69
2022/01/28 14:37:40;;;;;;;6.65;1.73;;;7.90;66.70;;;;;;4950278;28;20573;-69
2022/01/28 14:40:08;;;;;;;8.70;1.60;;;7.80;66.40;;;;;;4969716;28;20453;-68
2022/01/28 14:42:35;;;;;;;11.45;1.23;;;7.80;67.20;;;;;;4953671;28;20170;-69
2022/01/28 14:45:01;;;;;;;6.85;1.52;;;7.70;67.80;;;;;;4957768;28;20133;-68
2022/01/28 14:47:26;;;;;;;8.98;1.80;;;7.70;67.60;;;;;;4961219;28;20059;-68
2022/01/28 14:49:52;;;;;;;8.20;1.58;;;7.70;67.40;;;;;;4964838;28;20165;-68
2022/01/28 14:52:20;;;;;;;7.53;1.65;;;7.70;67.50;;;;;;4959231;28;20129;-68
2022/01/28 14:54:49;;;;;;;9.77;2.28;;;7.70;67.50;;;;;;4961822;28;20046;-69
2022/01/28 14:57:15;;;;;;;10.68;1.80;;;7.70;68.20;;;;;;4951006;28;20083;-70
2022/01/28 14:59:43;;;;;;;6.22;1.77;;;7.70;68.40;;;;;;4956637;28;20043;-68
2022/01/28 15:02:12;;;;;;;11.65;2.10;;;7.70;68.80;;;;;;4958969;28;20030;-69
2022/01/28 15:04:38;;;;;;;12.02;1.85;;;7.70;68.40;;;;;;4966991;28;20073;-68
2022/01/28 15:07:04;;;;;;;12.60;3.08;;;7.60;69.20;;;;;;4949746;28;20033;-69
2022/01/28 15:09:30;;;;;;;9.60;1.60;;;7.60;69.60;;;;;;4961818;28;20054;-69
2022/01/28 15:11:57;;;;;;;8.95;1.95;;;7.50;69.60;;;;;;4962637;28;20414;-69
2022/01/28 15:14:26;;;;;;;8.05;2.22;;;7.50;69.10;;;;;;4958878;28;20038;-65
2022/01/28 15:16:54;;;;;;;7.35;1.98;;;7.40;69.60;;;;;;4963536;28;20034;-67
2022/01/28 15:19:20;;;;;;;4.50;1.23;;;7.30;69.60;;;;;;4958374;28;20117;-68
2022/01/28 15:21:50;;;;;;;7.07;1.20;;;7.20;70.30;;;;;;4962487;28;20529;-68
2022/01/28 15:24:21;;;;;;;10.65;1.48;;;7.10;71.70;;;;;;4947393;28;20035;-69
2022/01/28 15:26:47;;;;;;;8.00;1.40;;;7.00;72.00;;;;;;4955987;28;20023;-69
2022/01/28 15:29:34;;;;;;;7.18;1.48;;;6.90;72.00;;;;;;4948606;28;20039;-68
2022/01/28 15:37:15;;;;;;;9.30;2.15;;;6.70;73.10;;;;;;4961642;28;20807;-68
2022/01/28 15:39:41;;;;;;;8.00;1.73;;;6.60;73.30;;;;;;4959762;28;20058;-68
2022/01/28 15:42:09;;;;;;;11.57;2.00;;;6.50;73.80;;;;;;4953256;28;20031;-68
2022/01/28 15:44:35;;;;;;;9.32;2.25;;;6.40;74.50;;;;;;4958901;28;20038;-68
2022/01/28 15:47:03;;;;;;;11.30;2.30;;;6.40;74.70;;;;;;4961733;28;20033;-67
2022/01/28 15:49:30;;;;;;;5.38;1.67;;;6.30;74.60;;;;;;4961855;28;20038;-68
2022/01/28 15:51:57;;;;;;;8.27;1.40;;;6.20;75.20;;;;;;4953057;28;20035;-67
2022/01/28 15:54:22;;;;;;;8.82;2.03;;;6.20;75.00;;;;;;4949901;28;20043;-68
2022/01/28 15:56:48;;;;;;;6.85;1.67;;;6.10;75.00;;;;;;4963016;28;20154;-68
2022/01/28 15:59:14;;;;;;;11.48;1.85;;;6.10;75.70;;;;;;4946421;28;20742;-68
2022/01/28 16:01:40;;;;;;;13.93;1.48;;;6.00;75.80;;;;;;4965114;28;20031;-67
2022/01/28 16:04:06;;;;;;;10.10;1.80;;;6.00;75.80;;;;;;4960058;28;20039;-68
2022/01/28 16:06:37;;;;;;;9.30;1.60;;;5.90;75.90;;;;;;4962547;28;20042;-68
2022/01/28 16:09:07;;;;;;;7.97;1.42;;;5.90;76.60;;;;;;4962352;28;20062;-67
2022/01/28 16:11:54;;;;;;;9.60;1.60;;;5.80;77.60;;;;;;4957984;28;20173;-68
2022/01/28 16:14:29;;;;;;;4.82;0.98;;;5.80;77.30;;;;;;4949747;28;20079;-68
2022/01/28 16:17:28;;;;;;;7.25;1.58;;;5.80;77.20;;;;;;4955440;28;20097;-67
2022/01/28 16:19:53;;;;;;;9.80;2.17;;;5.80;77.20;;;;;;4949662;28;20467;-67
2022/01/28 16:22:19;;;;;;;6.88;1.50;;;5.70;77.70;;;;;;4947592;28;20070;-67
2022/01/28 16:24:45;;;;;;;9.02;1.55;;;5.70;77.70;;;;;;4952967;28;20031;-67
2022/01/28 16:27:11;;;;;;;7.28;1.50;;;5.70;77.70;;;;;;4950260;28;20729;-73
2022/01/28 16:29:42;;;;;;;7.95;1.83;;;5.70;78.20;;;;;;4958448;28;20141;-73
2022/01/28 16:32:08;;;;;;;7.85;1.60;;;5.70;77.80;;;;;;4955983;28;20039;-73
2022/01/28 16:34:33;;;;;;;5.32;1.50;;;5.70;77.70;;;;;;4955978;28;20042;-72
2022/01/28 16:36:59;;;;;;;8.88;2.00;;;5.70;77.60;;;;;;4961826;28;20072;-68
2022/01/28 16:39:25;;;;;;;7.57;1.48;;;5.70;77.60;;;;;;4948266;28;20042;-68
2022/01/28 16:41:58;;;;;;;11.63;2.92;;;5.70;78.70;;;;;;4958423;28;20503;-68
2022/01/28 16:44:24;;;;;;;6.30;1.95;;;5.70;79.10;;;;;;4952519;28;20677;-68
2022/01/28 16:46:52;;;;;;;7.90;2.65;;;5.70;79.30;;;;;;4958096;28;20077;-69
2022/01/28 16:49:17;;;;;;;10.70;4.22;;;5.70;79.60;;;;;;4953958;28;20043;-68
2022/01/28 16:51:43;;;;;;;14.00;3.72;;;5.60;79.60;;;;;;4949669;28;20031;-68
2022/01/28 16:54:10;;;;;;;9.38;3.40;;;5.70;78.80;;;;;;4951154;28;20753;-68
2022/01/28 16:56:37;;;;;;;19.02;7.13;;;5.70;79.00;;;;;;4955328;28;20254;-68
2022/01/28 16:59:04;;;;;;;49.33;19.42;;;5.70;78.80;;;;;;4954255;28;20054;-68
2022/01/28 17:01:31;;;;;;;32.13;12.35;;;5.70;78.70;;;;;;4946488;28;20093;-68
2022/01/28 17:03:58;;;;;;;27.65;8.65;;;5.70;77.70;;;;;;4945615;28;20029;-68
2022/01/28 17:06:27;;;;;;;17.90;6.13;;;5.60;78.80;;;;;;4943487;28;20031;-68
2022/01/28 17:08:57;;;;;;;12.90;4.13;;;5.60;79.30;;;;;;4945128;28;20019;-68
2022/01/28 17:13:59;;;;;;;19.83;8.48;;;5.50;79.80;;;;;;4957354;28;20062;-68
2022/01/28 17:16:26;;;;;;;17.15;8.05;;;5.60;79.60;;;;;;4954467;28;20061;-68
2022/01/28 17:18:53;;;;;;;19.75;7.13;;;5.50;79.90;;;;;;4953597;28;20026;-68
2022/01/28 17:21:20;;;;;;;10.95;4.38;;;5.50;80.40;;;;;;4958014;28;20592;-68
2022/01/28 17:23:46;;;;;;;16.30;4.38;;;5.50;80.10;;;;;;4955023;28;20764;-69
2022/01/28 17:26:13;;;;;;;11.57;3.67;;;5.40;80.30;;;;;;4957341;28;20034;-69
2022/01/28 17:28:40;;;;;;;12.60;3.63;;;5.40;80.20;;;;;;4945844;28;20038;-68
2022/01/28 17:31:06;;;;;;;10.45;3.00;;;5.40;80.60;;;;;;4954624;28;20043;-69
2022/01/28 17:33:32;;;;;;;13.15;3.92;;;5.40;80.50;;;;;;4945337;28;20037;-68
2022/01/28 17:35:57;;;;;;;12.27;3.10;;;5.40;80.60;;;;;;4948028;28;20086;-68
2022/01/28 17:38:24;;;;;;;4.15;2.08;;;5.40;80.90;;;;;;4949026;28;20122;-69
2022/01/28 17:40:50;;;;;;;5.75;2.55;;;5.40;81.20;;;;;;4960639;28;20026;-68
2022/01/28 17:43:17;;;;;;;11.93;3.38;;;5.40;81.00;;;;;;4970125;28;20043;-68
2022/01/28 17:45:43;;;;;;;11.02;2.40;;;5.40;81.80;;;;;;4951238;28;20130;-68
2022/01/28 17:48:11;;;;;;;8.55;1.95;;;5.40;81.90;;;;;;4949588;28;20058;-68
2022/01/28 17:50:38;;;;;;;11.13;2.92;;;5.40;81.80;;;;;;4947645;28;20035;-69